createdAt,value
2018-05-27T00:01:33.745Z,6.63
2018-05-27T00:04:01.662Z,12.57
2018-05-27T00:06:29.144Z,6.90
2018-05-27T00:08:56.647Z,7.27
2018-05-27T00:11:25.406Z,6.93
2018-05-27T00:13:52.888Z,6.63
2018-05-27T00:16:20.432Z,6.90
2018-05-27T00:18:48.604Z,6.97
2018-05-27T00:21:16.357Z,6.47
2018-05-27T00:23:44.317Z,6.90
2018-05-27T00:26:11.824Z,6.80
2018-05-27T00:28:40.333Z,6.93
2018-05-27T00:31:07.818Z,7.13
2018-05-27T00:33:37.467Z,7.33
2018-05-27T00:36:05.744Z,7.07
2018-05-27T00:38:34.007Z,7.67
2018-05-27T00:41:01.551Z,7.53
2018-05-27T00:43:29.493Z,7.40
2018-05-27T00:45:56.987Z,7.53
2018-05-27T00:48:25.316Z,7.07
2018-05-27T00:50:52.911Z,7.07
2018-05-27T00:53:20.803Z,7.47
2018-05-27T00:55:49.013Z,7.00
2018-05-27T00:58:16.522Z,7.50
2018-05-27T01:00:44.986Z,8.00
2018-05-27T01:03:12.519Z,7.63
2018-05-27T01:05:40.272Z,8.43
2018-05-27T01:08:07.795Z,8.90
2018-05-27T01:10:36.076Z,8.10
2018-05-27T01:13:04.626Z,7.80
2018-05-27T01:15:32.105Z,8.13
2018-05-27T01:17:59.620Z,7.87
2018-05-27T01:20:27.139Z,8.40
2018-05-27T01:22:55.837Z,8.03
2018-05-27T01:25:24.113Z,8.10
2018-05-27T01:27:51.684Z,8.23
2018-05-27T01:30:19.405Z,8.93
2018-05-27T01:32:46.887Z,8.40
2018-05-27T01:35:17.735Z,9.10
2018-05-27T01:37:45.220Z,7.97
2018-05-27T01:40:12.715Z,8.63
2018-05-27T01:42:40.476Z,8.30
2018-05-27T01:45:08.502Z,8.40
2018-05-27T01:47:35.974Z,8.53
2018-05-27T01:50:03.491Z,7.93
2018-05-27T01:52:56.404Z,8.33
2018-05-27T01:55:24.438Z,8.80
2018-05-27T01:57:51.975Z,8.40
2018-05-27T02:00:19.475Z,8.77
2018-05-27T02:02:57.308Z,8.37
2018-05-27T02:05:25.136Z,8.93
2018-05-27T02:07:52.648Z,9.03
2018-05-27T02:10:20.892Z,8.90
2018-05-27T02:12:58.549Z,8.70
2018-05-27T02:15:26.339Z,9.60
2018-05-27T02:17:53.835Z,9.03
2018-05-27T02:20:22.507Z,9.13
2018-05-27T02:22:50.361Z,8.70
2018-05-27T02:25:17.855Z,9.50
2018-05-27T02:27:45.381Z,9.33
2018-05-27T02:30:13.882Z,9.40
2018-05-27T02:32:41.539Z,9.23
2018-05-27T02:35:09.022Z,9.33
2018-05-27T02:37:37.511Z,9.77
2018-05-27T02:40:04.992Z,9.33
2018-05-27T02:42:33.130Z,9.03
2018-05-27T02:45:00.829Z,9.53
2018-05-27T02:47:28.400Z,9.07
2018-05-27T02:49:56.532Z,9.13
2018-05-27T02:52:29.127Z,9.20
2018-05-27T02:54:56.663Z,9.10
2018-05-27T02:57:25.172Z,8.93
2018-05-27T02:59:52.656Z,8.43
2018-05-27T03:02:20.241Z,8.67
2018-05-27T03:04:47.718Z,8.77
2018-05-27T03:07:15.263Z,9.43
2018-05-27T03:09:42.767Z,9.27
2018-05-27T03:12:10.240Z,9.87
2018-05-27T03:14:37.738Z,8.83
2018-05-27T03:17:05.226Z,9.80
2018-05-27T03:19:32.907Z,9.10
2018-05-27T03:22:00.444Z,9.53
2018-05-27T03:24:27.935Z,9.07
2018-05-27T03:26:55.444Z,9.60
2018-05-27T03:29:22.976Z,10.03
2018-05-27T03:31:50.483Z,9.57
2018-05-27T03:34:18.078Z,10.03
2018-05-27T03:36:46.257Z,9.60
2018-05-27T03:39:13.754Z,10.17
2018-05-27T03:41:41.245Z,10.10
2018-05-27T03:44:08.846Z,10.30
2018-05-27T03:46:37.378Z,10.77
2018-05-27T03:49:04.878Z,10.13
2018-05-27T03:51:32.399Z,9.83
2018-05-27T03:54:00.147Z,10.27
2018-05-27T03:56:27.643Z,10.23
2018-05-27T03:58:55.393Z,9.53
2018-05-27T04:01:22.878Z,10.03
2018-05-27T04:04:02.092Z,10.13
2018-05-27T04:06:41.398Z,10.50
2018-05-27T04:09:09.751Z,10.30
2018-05-27T04:11:38.026Z,9.40
2018-05-27T04:14:05.522Z,8.90
2018-05-27T04:16:33.273Z,9.23
2018-05-27T04:19:00.751Z,8.83
2018-05-27T04:21:28.254Z,8.23
2018-05-27T04:23:56.698Z,8.30
2018-05-27T04:26:24.243Z,8.33
2018-05-27T04:28:51.771Z,8.17
2018-05-27T04:31:19.252Z,7.33
2018-05-27T04:33:46.875Z,7.37
2018-05-27T04:36:15.211Z,7.80
2018-05-27T04:38:42.696Z,7.13
2018-05-27T04:41:10.236Z,7.00
2018-05-27T04:43:37.916Z,7.07
2018-05-27T04:46:05.647Z,6.57
2018-05-27T04:48:33.142Z,7.07
2018-05-27T04:51:01.379Z,6.80
2018-05-27T04:53:28.913Z,6.10
2018-05-27T04:55:56.415Z,9.83
2018-05-27T04:58:24.153Z,6.00
2018-05-27T05:00:51.655Z,6.20
2018-05-27T05:03:19.959Z,6.33
2018-05-27T05:05:48.119Z,5.70
2018-05-27T05:08:16.595Z,5.90
2018-05-27T05:10:45.035Z,5.57
2018-05-27T05:13:12.747Z,5.10
2018-05-27T05:15:41.002Z,5.10
2018-05-27T05:18:08.496Z,4.80
2018-05-27T05:20:35.983Z,5.10
2018-05-27T05:23:04.583Z,5.00
2018-05-27T05:25:32.059Z,4.90
2018-05-27T05:27:59.555Z,4.90
2018-05-27T05:30:27.600Z,5.00
2018-05-27T05:32:55.117Z,5.13
2018-05-27T05:35:22.654Z,4.93
2018-05-27T05:37:50.128Z,4.87
2018-05-27T05:40:17.599Z,4.80
2018-05-27T05:42:45.160Z,5.10
2018-05-27T05:45:12.635Z,5.40
2018-05-27T05:47:40.440Z,5.07
2018-05-27T05:50:07.945Z,4.90
2018-05-27T05:53:00.242Z,5.37
2018-05-27T05:55:27.928Z,5.03
2018-05-27T05:57:56.199Z,4.50
2018-05-27T06:00:23.679Z,4.80
2018-05-27T06:02:51.147Z,4.50
2018-05-27T06:05:18.631Z,4.77
2018-05-27T06:07:46.266Z,4.57
2018-05-27T06:10:14.459Z,4.43
2018-05-27T06:12:42.962Z,4.20
2018-05-27T06:15:10.491Z,4.60
2018-05-27T06:17:38.774Z,3.73
2018-05-27T06:20:07.183Z,4.00
2018-05-27T06:22:34.709Z,4.00
2018-05-27T06:25:02.962Z,4.03
2018-05-27T06:27:30.427Z,3.93
2018-05-27T06:29:58.639Z,3.77
2018-05-27T06:32:26.153Z,4.30
2018-05-27T06:34:53.648Z,4.03
2018-05-27T06:37:21.205Z,4.57
2018-05-27T06:39:48.761Z,5.03
2018-05-27T06:42:16.271Z,4.80
2018-05-27T06:44:43.737Z,4.70
2018-05-27T06:47:11.223Z,5.03
2018-05-27T06:49:39.843Z,5.03
2018-05-27T06:52:07.328Z,4.50
2018-05-27T06:54:54.507Z,4.63
2018-05-27T06:57:22.028Z,4.30
2018-05-27T06:59:49.507Z,4.83
2018-05-27T07:02:17.031Z,4.80
2018-05-27T07:04:44.571Z,4.50
2018-05-27T07:07:12.087Z,4.43
2018-05-27T07:09:39.568Z,4.67
2018-05-27T07:12:07.099Z,6.03
2018-05-27T07:14:39.916Z,4.27
2018-05-27T07:17:07.480Z,4.30
2018-05-27T07:19:35.308Z,4.00
2018-05-27T07:22:02.867Z,4.20
2018-05-27T07:24:40.351Z,3.90
2018-05-27T07:27:07.829Z,4.07
2018-05-27T07:29:35.526Z,4.17
2018-05-27T07:32:03.058Z,4.70
2018-05-27T07:34:30.633Z,4.40
2018-05-27T07:36:58.107Z,4.10
2018-05-27T07:39:26.554Z,4.30
2018-05-27T07:41:54.039Z,4.60
2018-05-27T07:44:36.191Z,4.33
2018-05-27T07:47:03.894Z,4.73
2018-05-27T07:49:31.460Z,4.50
2018-05-27T07:52:06.803Z,4.90
2018-05-27T07:54:34.432Z,4.60
2018-05-27T07:57:02.235Z,4.40
2018-05-27T07:59:29.707Z,4.37
2018-05-27T08:01:57.259Z,4.60
2018-05-27T08:04:24.742Z,4.00
2018-05-27T08:06:53.219Z,4.20
2018-05-27T08:09:21.471Z,4.70
2018-05-27T08:11:48.958Z,4.20
2018-05-27T08:14:17.203Z,4.40
2018-05-27T08:16:44.919Z,4.03
2018-05-27T08:19:12.416Z,4.27
2018-05-27T08:21:39.940Z,3.70
2018-05-27T08:24:07.416Z,3.73
2018-05-27T08:26:34.912Z,3.43
2018-05-27T08:29:02.379Z,3.63
2018-05-27T08:31:31.676Z,3.63
2018-05-27T08:34:04.099Z,3.50
2018-05-27T08:36:32.622Z,3.70
2018-05-27T08:39:00.095Z,3.40
2018-05-27T08:41:29.392Z,3.47
2018-05-27T08:43:59.288Z,3.50
2018-05-27T08:46:26.767Z,3.00
2018-05-27T08:48:55.233Z,2.93
2018-05-27T08:51:22.714Z,3.30
2018-05-27T08:53:55.120Z,3.10
2018-05-27T08:56:22.622Z,3.10
2018-05-27T08:58:50.225Z,3.23
2018-05-27T09:01:17.746Z,2.77
2018-05-27T09:03:45.499Z,2.90
2018-05-27T09:06:12.959Z,3.00
2018-05-27T09:08:40.502Z,3.20
2018-05-27T09:11:07.992Z,3.80
2018-05-27T09:13:35.793Z,3.20
2018-05-27T09:16:04.291Z,2.73
2018-05-27T09:18:31.924Z,2.97
2018-05-27T09:20:59.613Z,3.63
2018-05-27T09:23:27.589Z,3.30
2018-05-27T09:25:55.225Z,3.03
2018-05-27T09:28:22.913Z,3.13
2018-05-27T09:30:50.723Z,3.20
2018-05-27T09:33:19.281Z,3.47
2018-05-27T09:35:48.419Z,3.33
2018-05-27T09:38:16.336Z,3.17
2018-05-27T09:40:43.997Z,3.37
2018-05-27T09:43:12.072Z,3.40
2018-05-27T09:45:39.952Z,3.30
2018-05-27T09:48:08.033Z,3.67
2018-05-27T09:50:36.460Z,3.90
2018-05-27T09:53:04.086Z,3.50
2018-05-27T09:55:32.073Z,3.90
2018-05-27T09:57:59.776Z,3.50
2018-05-27T10:00:28.510Z,3.60
2018-05-27T10:02:56.998Z,3.83
2018-05-27T10:05:25.480Z,3.60
2018-05-27T10:07:53.603Z,3.43
2018-05-27T10:10:22.985Z,3.80
2018-05-27T10:12:50.736Z,3.80
2018-05-27T10:15:19.399Z,3.80
2018-05-27T10:17:47.058Z,4.03
2018-05-27T10:20:15.005Z,3.63
2018-05-27T10:22:43.423Z,5.40
2018-05-27T10:25:11.287Z,4.03
2018-05-27T10:27:40.020Z,3.70
2018-05-27T10:30:07.738Z,4.67
2018-05-27T10:32:39.952Z,4.20
2018-05-27T10:35:07.988Z,4.03
2018-05-27T10:37:36.427Z,4.50
2018-05-27T10:40:09.826Z,4.30
2018-05-27T10:42:40.077Z,4.23
2018-05-27T10:45:12.996Z,4.40
2018-05-27T10:47:44.559Z,4.10
2018-05-27T10:50:14.004Z,4.50
2018-05-27T10:52:44.951Z,4.13
2018-05-27T10:57:55.321Z,4.30
2018-05-27T11:00:23.004Z,4.33
2018-05-27T11:02:50.656Z,4.10
2018-05-27T11:05:18.978Z,4.13
2018-05-27T11:07:46.629Z,4.43
2018-05-27T11:10:14.561Z,3.97
2018-05-27T11:12:42.917Z,3.90
2018-05-27T11:15:17.501Z,10.13
2018-05-27T11:17:45.202Z,3.60
2018-05-27T11:20:19.458Z,3.70
2018-05-27T11:27:59.250Z,3.30
2018-05-27T11:30:26.949Z,3.20
2018-05-27T11:32:58.040Z,3.37
2018-05-27T11:44:15.002Z,8.37
2018-05-27T11:46:43.545Z,4.30
2018-05-27T11:54:18.738Z,3.67
2018-05-27T11:59:22.081Z,3.30
2018-05-27T12:01:52.748Z,3.57
2018-05-27T12:08:03.585Z,3.63
2018-05-27T12:23:27.274Z,4.07
2018-05-27T12:36:19.893Z,4.17
2018-05-27T12:46:36.288Z,4.60
2018-05-27T12:54:11.553Z,5.17
2018-05-27T13:01:51.667Z,5.43
2018-05-27T13:14:51.469Z,5.77
2018-05-27T13:30:51.743Z,6.07
2018-05-27T13:33:22.320Z,5.87
2018-05-27T13:35:50.855Z,6.53
2018-05-27T13:38:24.538Z,6.10
2018-05-27T13:40:54.389Z,6.27
2018-05-27T14:08:17.234Z,7.60
2018-05-27T14:19:18.984Z,8.97
2018-05-27T14:48:01.591Z,8.87
2018-05-27T15:00:49.660Z,6.77
2018-05-27T15:03:18.502Z,6.53
2018-05-27T15:05:48.283Z,6.63
2018-05-27T15:10:49.749Z,7.07
2018-05-27T15:18:47.448Z,7.93
2018-05-27T15:26:46.902Z,7.40
2018-05-27T16:15:08.065Z,5.57
2018-05-27T16:17:36.669Z,5.43
2018-05-27T16:31:03.540Z,5.70
2018-05-27T16:42:34.907Z,6.17
2018-05-27T16:48:24.088Z,6.30
2018-05-27T16:50:54.551Z,5.17
2018-05-27T17:01:11.126Z,4.60
2018-05-27T17:06:13.401Z,4.90
2018-05-27T17:08:46.399Z,4.47
2018-05-27T17:11:17.786Z,4.27
2018-05-27T17:13:45.937Z,7.10
2018-05-27T17:16:15.480Z,5.20
2018-05-27T17:18:47.092Z,4.00
2018-05-27T17:21:15.676Z,4.17
2018-05-27T17:26:18.553Z,4.47
2018-05-27T17:28:47.661Z,4.33
2018-05-27T17:31:20.025Z,4.30
2018-05-27T17:33:47.972Z,4.40
2018-05-27T17:36:16.825Z,3.90
2018-05-27T17:38:47.299Z,3.97
2018-05-27T17:41:15.460Z,4.30
2018-05-27T17:43:43.397Z,4.77
2018-05-27T17:49:00.382Z,4.43
2018-05-27T17:51:30.139Z,4.43
2018-05-27T17:53:58.646Z,4.60
2018-05-27T17:56:27.222Z,4.10
2018-05-27T17:58:56.764Z,4.50
2018-05-27T18:01:25.457Z,4.20
2018-05-27T18:03:56.281Z,5.80
2018-05-27T18:06:25.258Z,5.20
2018-05-27T18:08:53.115Z,4.23
2018-05-27T18:13:57.354Z,4.70
2018-05-27T18:16:25.417Z,4.80
2018-05-27T18:18:53.941Z,4.30
2018-05-27T18:21:21.718Z,4.20
2018-05-27T18:23:50.228Z,4.40
2018-05-27T18:26:17.901Z,3.77
2018-05-27T18:28:46.477Z,4.10
2018-05-27T18:31:14.202Z,6.67
2018-05-27T18:33:42.929Z,4.20
2018-05-27T18:36:11.245Z,3.83
2018-05-27T18:38:38.994Z,4.13
2018-05-27T18:41:06.644Z,4.10
2018-05-27T18:43:37.009Z,3.70
2018-05-27T18:46:05.138Z,3.63
2018-05-27T18:48:33.058Z,3.47
2018-05-27T18:53:34.715Z,3.47
2018-05-27T18:58:37.135Z,4.07
2018-05-27T19:01:08.450Z,3.60
2018-05-27T19:03:37.432Z,3.17
2018-05-27T19:06:07.505Z,3.30
2018-05-27T19:08:36.840Z,3.13
2018-05-27T19:11:07.922Z,3.47
2018-05-27T19:13:37.201Z,3.57
2018-05-27T19:16:07.012Z,2.93
2018-05-27T19:21:13.043Z,2.97
2018-05-27T19:31:23.574Z,3.10
2018-05-27T19:33:53.159Z,2.50
2018-05-27T19:36:22.200Z,2.90
2018-05-27T19:41:22.413Z,2.57
2018-05-27T19:43:55.160Z,2.40
2018-05-27T19:46:23.561Z,2.70
2018-05-27T19:48:53.145Z,2.60
2018-05-27T19:51:22.517Z,2.63
2018-05-27T19:53:52.241Z,3.10
2018-05-27T19:56:29.659Z,2.70
2018-05-27T19:59:02.581Z,2.90
2018-05-27T20:01:30.261Z,2.77
2018-05-27T20:04:01.666Z,2.80
2018-05-27T20:06:30.572Z,2.70
2018-05-27T20:09:00.017Z,2.90
2018-05-27T20:11:27.731Z,2.60
2018-05-27T20:13:57.345Z,2.70
2018-05-27T20:16:25.369Z,2.90
2018-05-27T20:18:57.167Z,2.90
2018-05-27T20:24:01.565Z,3.10
2018-05-27T20:26:30.200Z,2.90
2018-05-27T20:28:59.396Z,2.90
2018-05-27T20:34:06.181Z,3.07
2018-05-27T20:36:35.086Z,3.13
2018-05-27T20:39:03.201Z,3.27
2018-05-27T20:41:31.884Z,3.43
2018-05-27T20:43:59.587Z,2.77
2018-05-27T20:46:34.111Z,3.40
2018-05-27T20:49:01.876Z,3.07
2018-05-27T20:51:30.704Z,3.10
2018-05-27T20:53:59.665Z,3.20
2018-05-27T20:56:27.402Z,3.00
2018-05-27T20:58:56.289Z,3.20
2018-05-27T21:01:24.709Z,3.20
2018-05-27T21:06:27.136Z,2.87
2018-05-27T21:08:54.894Z,3.00
2018-05-27T21:11:22.968Z,3.13
2018-05-27T21:13:51.877Z,3.53
2018-05-27T21:16:51.284Z,3.40
2018-05-27T21:19:19.285Z,3.60
2018-05-27T21:21:48.039Z,3.37
2018-05-27T21:24:15.690Z,3.47
2018-05-27T21:27:14.898Z,3.60
2018-05-27T21:29:44.535Z,3.70
2018-05-27T21:32:13.205Z,3.80
2018-05-27T21:34:41.116Z,3.60
2018-05-27T21:37:08.934Z,3.63
2018-05-27T21:39:38.221Z,3.70
2018-05-27T21:42:06.536Z,3.53
2018-05-27T21:44:34.205Z,3.30
2018-05-27T21:47:02.080Z,3.80
2018-05-27T21:49:29.818Z,3.93
2018-05-27T21:51:57.537Z,3.70
2018-05-27T21:54:25.257Z,4.03
2018-05-27T21:56:54.965Z,3.97
2018-05-27T21:59:22.624Z,3.90
2018-05-27T22:01:50.289Z,3.63
2018-05-27T22:04:17.997Z,3.67
2018-05-27T22:06:50.925Z,3.90
2018-05-27T22:09:18.586Z,3.93
2018-05-27T22:11:47.209Z,3.60
2018-05-27T22:14:15.697Z,3.80
2018-05-27T22:16:57.965Z,3.70
2018-05-27T22:19:26.058Z,3.77
2018-05-27T22:21:53.761Z,3.93
2018-05-27T22:24:22.203Z,3.53
2018-05-27T22:26:49.897Z,3.83
2018-05-27T22:29:17.616Z,3.60
2018-05-27T22:31:45.249Z,3.90
2018-05-27T22:34:12.997Z,3.77
2018-05-27T22:36:40.885Z,4.10
2018-05-27T22:39:08.513Z,3.70
2018-05-27T22:41:36.187Z,3.80
2018-05-27T22:44:03.889Z,3.73
2018-05-27T22:46:32.524Z,4.07
2018-05-27T23:05:53.879Z,3.33
2018-05-27T23:08:22.198Z,3.13
2018-05-27T23:10:50.564Z,3.37
2018-05-27T23:13:19.845Z,3.50
2018-05-27T23:15:59.838Z,3.40
2018-05-27T23:18:29.121Z,3.20
2018-05-27T23:23:31.863Z,3.50
2018-05-27T23:26:00.322Z,3.53
2018-05-27T23:28:29.723Z,3.30
2018-05-27T23:30:57.942Z,3.37
2018-05-27T23:33:27.322Z,3.20
2018-05-27T23:35:57.296Z,3.70
2018-05-27T23:38:25.725Z,3.53
2018-05-27T23:40:55.548Z,3.70
2018-05-27T23:43:23.668Z,3.50
2018-05-27T23:45:52.528Z,3.63
2018-05-27T23:48:20.779Z,3.67
2018-05-27T23:50:50.151Z,3.70
2018-05-27T23:53:19.677Z,3.83
2018-05-27T23:55:48.245Z,3.40
2018-05-27T23:58:15.979Z,3.73
